createdAt,value
2018-06-11T00:01:22.917Z,25.20
2018-06-11T00:03:52.038Z,25.77
2018-06-11T00:06:21.170Z,25.33
2018-06-11T00:08:50.282Z,24.63
2018-06-11T00:11:19.413Z,24.40
2018-06-11T00:13:48.532Z,24.37
2018-06-11T00:16:17.643Z,23.67
2018-06-11T00:18:46.777Z,22.47
2018-06-11T00:21:15.885Z,24.37
2018-06-11T00:23:45.001Z,24.57
2018-06-11T00:26:14.158Z,24.60
2018-06-11T00:28:43.265Z,23.23
2018-06-11T00:31:12.390Z,22.57
2018-06-11T00:33:41.499Z,22.67
2018-06-11T00:36:10.609Z,23.87
2018-06-11T00:38:39.749Z,24.20
2018-06-11T00:41:08.916Z,22.20
2018-06-11T00:43:38.037Z,23.20
2018-06-11T00:46:07.165Z,22.17
2018-06-11T00:48:36.294Z,21.17
2018-06-11T00:51:05.433Z,21.70
2018-06-11T00:53:34.537Z,23.60
2018-06-11T00:56:07.845Z,22.50
2018-06-11T00:58:36.957Z,26.00
2018-06-11T01:01:06.218Z,24.43
2018-06-11T01:03:35.328Z,22.93
2018-06-11T01:06:04.479Z,24.50
2018-06-11T01:08:33.589Z,22.73
2018-06-11T01:11:02.697Z,27.23
2018-06-11T01:13:31.801Z,28.03
2018-06-11T01:16:00.925Z,26.30
2018-06-11T01:18:30.052Z,26.27
2018-06-11T01:20:59.201Z,27.20
2018-06-11T01:23:28.309Z,28.13
2018-06-11T01:25:57.437Z,23.37
2018-06-11T01:28:26.546Z,24.33
2018-06-11T01:30:55.656Z,25.80
2018-06-11T01:33:24.752Z,24.37
2018-06-11T01:35:53.856Z,24.33
2018-06-11T01:38:22.971Z,25.10
2018-06-11T01:40:53.151Z,25.73
2018-06-11T01:43:22.264Z,27.27
2018-06-11T01:45:51.366Z,26.17
2018-06-11T01:48:20.484Z,26.37
2018-06-11T01:50:49.621Z,24.67
2018-06-11T01:53:18.746Z,25.23
2018-06-11T01:55:47.901Z,27.03
2018-06-11T01:58:17.033Z,26.40
2018-06-11T02:00:46.181Z,26.20
2018-06-11T02:03:15.641Z,26.27
2018-06-11T02:05:44.769Z,23.83
2018-06-11T02:08:13.902Z,23.97
2018-06-11T02:10:43.021Z,23.53
2018-06-11T02:13:12.245Z,21.13
2018-06-11T02:15:41.349Z,22.73
2018-06-11T02:18:10.486Z,23.03
2018-06-11T02:20:39.637Z,23.17
2018-06-11T02:23:08.733Z,21.53
2018-06-11T02:25:37.877Z,22.77
2018-06-11T02:28:07.027Z,25.70
2018-06-11T02:30:36.133Z,24.80
2018-06-11T02:33:05.257Z,24.80
2018-06-11T02:35:34.366Z,21.73
2018-06-11T02:38:03.475Z,24.20
2018-06-11T02:40:32.605Z,27.07
2018-06-11T02:43:01.746Z,23.43
2018-06-11T02:45:30.890Z,24.67
2018-06-11T02:48:00.007Z,23.07
2018-06-11T02:50:29.150Z,23.53
2018-06-11T02:52:59.426Z,27.37
2018-06-11T02:55:28.558Z,21.50
2018-06-11T02:57:57.679Z,24.07
2018-06-11T03:00:32.549Z,22.43
2018-06-11T03:03:01.689Z,21.63
2018-06-11T03:05:30.809Z,22.23
2018-06-11T03:07:59.937Z,23.33
2018-06-11T03:10:29.092Z,23.40
2018-06-11T03:12:58.192Z,19.20
2018-06-11T03:15:27.356Z,19.70
2018-06-11T03:17:56.481Z,21.47
2018-06-11T03:20:25.660Z,21.80
2018-06-11T03:22:54.790Z,22.57
2018-06-11T03:25:23.905Z,24.77
2018-06-11T03:27:53.057Z,26.57
2018-06-11T03:30:22.203Z,25.60
2018-06-11T03:32:51.305Z,26.20
2018-06-11T03:35:20.449Z,24.03
2018-06-11T03:37:49.559Z,25.13
2018-06-11T03:40:18.677Z,23.37
2018-06-11T03:42:47.785Z,22.23
2018-06-11T03:45:16.915Z,25.10
2018-06-11T03:47:46.030Z,22.27
2018-06-11T03:50:15.138Z,22.93
2018-06-11T03:52:44.273Z,22.90
2018-06-11T03:55:13.377Z,22.47
2018-06-11T03:57:42.514Z,23.63
2018-06-11T04:00:11.657Z,22.60
2018-06-11T04:02:40.797Z,24.63
2018-06-11T04:05:09.944Z,28.53
2018-06-11T04:07:39.074Z,26.67
2018-06-11T04:10:08.239Z,26.93
2018-06-11T04:12:37.362Z,27.33
2018-06-11T04:15:06.695Z,32.30
2018-06-11T04:17:35.803Z,26.20
2018-06-11T04:20:04.949Z,25.03
2018-06-11T04:22:34.082Z,27.93
2018-06-11T04:25:03.222Z,28.07
2018-06-11T04:27:32.361Z,31.73
2018-06-11T04:30:01.494Z,27.37
2018-06-11T04:32:30.629Z,33.17
2018-06-11T04:34:59.750Z,27.10
2018-06-11T04:37:28.894Z,29.57
2018-06-11T04:39:58.010Z,28.97
2018-06-11T04:42:27.113Z,27.17
2018-06-11T04:44:56.253Z,28.23
2018-06-11T04:47:25.382Z,27.57
2018-06-11T04:49:54.493Z,30.13
2018-06-11T04:52:23.609Z,29.40
2018-06-11T04:54:52.849Z,36.33
2018-06-11T04:57:21.962Z,27.50
2018-06-11T04:59:51.108Z,34.40
2018-06-11T05:02:20.231Z,35.43
2018-06-11T05:04:49.596Z,38.37
2018-06-11T05:07:18.729Z,36.67
2018-06-11T05:09:47.872Z,42.30
2018-06-11T05:12:30.246Z,41.23
2018-06-11T05:15:01.503Z,38.70
2018-06-11T05:17:30.678Z,37.20
2018-06-11T05:19:59.813Z,35.60
2018-06-11T05:22:29.004Z,35.33
2018-06-11T05:24:58.126Z,37.13
2018-06-11T05:27:27.274Z,35.67
2018-06-11T05:29:56.393Z,34.43
2018-06-11T05:32:25.566Z,36.27
2018-06-11T05:34:54.799Z,40.83
2018-06-11T05:37:36.342Z,36.77
2018-06-11T05:40:05.506Z,35.57
2018-06-11T05:42:34.686Z,40.23
2018-06-11T05:45:03.964Z,34.40
2018-06-11T05:47:33.083Z,35.03
2018-06-11T05:50:02.219Z,33.00
2018-06-11T05:52:31.373Z,37.93
2018-06-11T05:55:00.514Z,49.27
2018-06-11T05:57:29.665Z,39.47
2018-06-11T05:59:58.822Z,40.33
2018-06-11T06:02:27.979Z,37.30
2018-06-11T06:05:01.552Z,36.07
2018-06-11T06:07:30.759Z,38.87
2018-06-11T06:09:59.872Z,31.50
2018-06-11T06:12:29.583Z,39.43
2018-06-11T06:14:58.873Z,36.90
2018-06-11T06:17:28.018Z,37.00
2018-06-11T06:19:57.172Z,36.87
2018-06-11T06:22:26.317Z,40.27
2018-06-11T06:24:55.469Z,36.60
2018-06-11T06:27:24.649Z,36.47
2018-06-11T06:29:53.917Z,40.53
2018-06-11T06:32:23.074Z,36.83
2018-06-11T06:34:52.266Z,34.27
2018-06-11T06:37:21.381Z,33.67
2018-06-11T06:39:50.505Z,38.30
2018-06-11T06:42:19.652Z,36.37
2018-06-11T06:44:48.812Z,42.37
2018-06-11T06:47:17.965Z,35.93
2018-06-11T06:49:47.102Z,34.87
2018-06-11T06:52:16.312Z,36.43
2018-06-11T06:54:45.490Z,36.13
2018-06-11T06:57:14.700Z,37.40
2018-06-11T06:59:43.862Z,40.57
2018-06-11T07:02:13.055Z,32.70
2018-06-11T07:04:42.197Z,35.10
2018-06-11T07:07:11.377Z,36.33
2018-06-11T07:09:40.518Z,31.63
2018-06-11T07:12:09.669Z,31.83
2018-06-11T07:14:38.865Z,30.53
2018-06-11T07:17:08.018Z,36.27
2018-06-11T07:19:37.171Z,35.37
2018-06-11T07:22:06.301Z,26.97
2018-06-11T07:24:35.461Z,35.57
2018-06-11T07:27:05.490Z,30.67
2018-06-11T07:29:34.680Z,30.83
2018-06-11T07:32:04.028Z,32.83
2018-06-11T07:34:33.163Z,32.73
2018-06-11T07:37:02.315Z,29.03
2018-06-11T07:39:31.437Z,31.13
2018-06-11T07:42:00.594Z,31.47
2018-06-11T07:44:29.737Z,32.50
2018-06-11T07:46:58.884Z,33.60
2018-06-11T07:49:29.524Z,32.83
2018-06-11T07:51:58.671Z,31.63
2018-06-11T07:54:27.781Z,27.27
2018-06-11T07:56:56.957Z,30.57
2018-06-11T07:59:26.122Z,34.93
2018-06-11T08:01:55.274Z,30.63
2018-06-11T08:04:24.383Z,32.27
2018-06-11T08:06:53.554Z,34.37
2018-06-11T08:09:22.680Z,34.80
2018-06-11T08:11:51.848Z,34.70
2018-06-11T08:14:22.034Z,33.20
2018-06-11T08:16:51.204Z,28.27
2018-06-11T08:19:20.317Z,31.67
2018-06-11T08:21:49.452Z,27.17
2018-06-11T08:24:18.613Z,29.83
2018-06-11T08:26:47.758Z,31.30
2018-06-11T08:29:16.967Z,24.03
2018-06-11T08:31:46.114Z,28.27
2018-06-11T08:34:15.284Z,29.63
2018-06-11T08:36:44.445Z,29.67
2018-06-11T08:39:13.667Z,30.67
2018-06-11T08:41:42.862Z,30.07
2018-06-11T08:44:12.006Z,24.03
2018-06-11T08:46:41.186Z,30.27
2018-06-11T08:49:10.346Z,26.73
2018-06-11T08:51:39.489Z,23.90
2018-06-11T08:54:08.652Z,26.30
2018-06-11T08:56:37.786Z,28.30
2018-06-11T08:59:19.799Z,35.93
2018-06-11T09:01:49.929Z,32.73
2018-06-11T09:04:19.425Z,29.17
2018-06-11T09:06:49.288Z,30.10
2018-06-11T09:09:20.107Z,33.53
2018-06-11T09:11:50.377Z,31.00
2018-06-11T09:14:19.830Z,22.33
2018-06-11T09:16:49.033Z,30.30
2018-06-11T09:19:18.222Z,27.80
2018-06-11T09:21:47.426Z,27.83
2018-06-11T09:24:16.638Z,31.40
2018-06-11T09:26:45.762Z,30.20
2018-06-11T09:29:14.914Z,30.27
2018-06-11T09:31:45.075Z,34.37
2018-06-11T09:34:14.226Z,29.30
2018-06-11T09:36:43.401Z,31.00
2018-06-11T09:39:12.542Z,31.00
2018-06-11T09:41:42.233Z,32.07
2018-06-11T09:44:11.425Z,31.53
2018-06-11T09:46:40.533Z,30.87
2018-06-11T09:49:09.708Z,32.03
2018-06-11T09:51:38.774Z,28.90
2018-06-11T09:54:07.890Z,26.40
2018-06-11T09:56:37.468Z,27.93
2018-06-11T09:59:06.561Z,34.70
2018-06-11T10:01:35.694Z,27.77
2018-06-11T10:04:08.315Z,31.83
2018-06-11T10:06:37.425Z,28.67
2018-06-11T10:09:08.282Z,29.37
2018-06-11T10:11:37.375Z,31.37
2018-06-11T10:14:06.529Z,28.37
2018-06-11T10:16:35.658Z,30.00
2018-06-11T10:19:04.986Z,24.23
2018-06-11T10:21:34.062Z,27.00
2018-06-11T10:24:03.214Z,32.70
2018-06-11T10:26:32.349Z,26.90
2018-06-11T10:29:01.515Z,29.00
2018-06-11T10:31:30.643Z,29.10
2018-06-11T10:33:59.797Z,25.37
2018-06-11T10:36:28.930Z,25.10
2018-06-11T10:38:58.063Z,27.03
2018-06-11T10:41:27.211Z,26.07
2018-06-11T10:43:56.339Z,24.93
2018-06-11T10:46:39.686Z,24.00
2018-06-11T10:49:08.837Z,25.80
2018-06-11T10:51:38.048Z,27.77
2018-06-11T10:54:07.346Z,30.97
2018-06-11T10:56:36.518Z,27.37
2018-06-11T10:59:05.712Z,26.67
2018-06-11T11:01:34.873Z,29.73
2018-06-11T11:04:04.058Z,26.60
2018-06-11T11:06:33.181Z,21.80
2018-06-11T11:09:02.374Z,23.93
2018-06-11T11:11:31.512Z,24.63
2018-06-11T11:14:00.747Z,23.00
2018-06-11T11:16:29.970Z,22.67
2018-06-11T11:18:59.149Z,22.97
2018-06-11T11:21:28.288Z,23.17
2018-06-11T11:23:57.485Z,23.07
2018-06-11T11:26:26.602Z,22.03
2018-06-11T11:28:55.721Z,19.23
2018-06-11T11:31:24.868Z,20.30
2018-06-11T11:33:53.978Z,20.37
2018-06-11T11:36:23.198Z,21.67
2018-06-11T11:38:52.295Z,19.50
2018-06-11T11:41:21.553Z,19.73
2018-06-11T11:43:50.716Z,21.30
2018-06-11T11:46:19.889Z,20.53
2018-06-11T11:48:49.041Z,17.97
2018-06-11T11:51:18.287Z,23.27
2018-06-11T11:53:47.443Z,23.27
2018-06-11T11:56:16.609Z,20.50
2018-06-11T11:58:45.746Z,20.83
2018-06-11T12:01:14.865Z,22.80
2018-06-11T12:03:44.019Z,21.17
2018-06-11T12:06:13.159Z,20.57
2018-06-11T12:08:42.321Z,17.13
2018-06-11T12:11:11.445Z,19.10
2018-06-11T12:13:40.571Z,23.80
2018-06-11T12:16:09.693Z,19.03
2018-06-11T12:18:38.830Z,19.67
2018-06-11T12:21:07.962Z,17.50
2018-06-11T12:23:37.089Z,18.30
2018-06-11T12:26:06.260Z,19.03
2018-06-11T12:28:35.423Z,15.40
2018-06-11T12:31:04.671Z,18.53
2018-06-11T12:33:33.790Z,16.53
2018-06-11T12:36:02.931Z,18.67
2018-06-11T12:38:32.157Z,17.70
2018-06-11T12:41:01.335Z,16.07
2018-06-11T12:43:30.466Z,18.63
2018-06-11T12:45:59.612Z,16.57
2018-06-11T12:48:28.745Z,16.40
2018-06-11T12:50:57.893Z,16.77
2018-06-11T12:53:27.044Z,14.67
2018-06-11T12:55:56.232Z,18.13
2018-06-11T12:58:25.385Z,15.97
2018-06-11T13:00:54.562Z,16.33
2018-06-11T13:03:23.730Z,13.50
2018-06-11T13:05:52.992Z,17.73
2018-06-11T13:08:22.215Z,16.17
2018-06-11T13:10:51.322Z,16.77
2018-06-11T13:13:21.094Z,14.17
2018-06-11T13:15:50.261Z,16.87
2018-06-11T13:18:19.400Z,15.50
2018-06-11T13:20:48.681Z,18.57
2018-06-11T13:23:17.845Z,17.57
2018-06-11T13:25:46.998Z,16.77
2018-06-11T13:28:16.129Z,17.93
2018-06-11T13:30:45.267Z,13.90
2018-06-11T13:33:14.425Z,13.63
2018-06-11T13:35:43.581Z,15.30
2018-06-11T13:38:12.726Z,14.63
2018-06-11T13:40:44.116Z,17.30
2018-06-11T13:43:13.229Z,14.10
2018-06-11T13:45:42.369Z,16.80
2018-06-11T13:48:11.494Z,12.63
2018-06-11T13:50:40.824Z,13.93
2018-06-11T13:53:09.926Z,13.37
2018-06-11T13:55:39.068Z,12.77
2018-06-11T13:58:08.296Z,11.50
2018-06-11T14:00:37.445Z,13.20
2018-06-11T14:03:06.597Z,13.03
2018-06-11T14:05:35.793Z,14.60
2018-06-11T14:08:05.112Z,13.07
2018-06-11T14:10:34.289Z,14.13
2018-06-11T14:13:03.440Z,14.70
2018-06-11T14:15:32.593Z,15.13
2018-06-11T14:18:01.734Z,13.63
2018-06-11T14:20:30.914Z,12.23
2018-06-11T14:23:00.438Z,13.37
2018-06-11T14:25:29.605Z,14.73
2018-06-11T14:27:58.771Z,13.70
2018-06-11T14:30:27.942Z,13.73
2018-06-11T14:32:57.073Z,13.70
2018-06-11T14:35:27.188Z,13.23
2018-06-11T14:37:56.386Z,12.57
2018-06-11T14:40:25.580Z,11.00
2018-06-11T14:42:54.698Z,11.80
2018-06-11T14:45:23.851Z,11.93
2018-06-11T14:47:52.991Z,13.30
2018-06-11T14:50:22.148Z,13.00
2018-06-11T14:52:52.558Z,14.93
2018-06-11T14:58:19.097Z,10.37
2018-06-11T15:00:48.321Z,12.77
2018-06-11T15:03:17.453Z,11.33
2018-06-11T15:05:46.598Z,12.13
2018-06-11T15:08:15.757Z,12.70
2018-06-11T15:10:45.365Z,13.43
2018-06-11T15:13:14.557Z,15.43
2018-06-11T15:15:43.733Z,14.47
2018-06-11T15:18:12.895Z,13.43
2018-06-11T15:20:42.085Z,14.97
2018-06-11T15:23:11.298Z,12.03
2018-06-11T15:25:40.422Z,12.57
2018-06-11T15:28:09.549Z,14.43
2018-06-11T15:30:38.697Z,11.53
2018-06-11T15:33:07.823Z,11.80
2018-06-11T15:35:37.003Z,13.13
2018-06-11T15:38:06.183Z,12.17
2018-06-11T15:40:35.343Z,14.90
2018-06-11T15:43:05.501Z,12.20
2018-06-11T15:45:34.617Z,12.77
2018-06-11T15:48:03.798Z,16.50
2018-06-11T15:50:33.076Z,13.10
2018-06-11T15:53:02.253Z,16.40
2018-06-11T15:55:31.452Z,14.40
2018-06-11T15:58:00.613Z,15.57
2018-06-11T16:00:29.764Z,12.87
2018-06-11T16:02:58.872Z,10.77
2018-06-11T16:05:28.107Z,13.10
2018-06-11T16:07:57.236Z,13.33
2018-06-11T16:10:26.574Z,13.77
2018-06-11T16:12:55.747Z,14.87
2018-06-11T16:15:24.896Z,18.83
2018-06-11T16:17:55.052Z,10.47
2018-06-11T16:20:24.209Z,10.63
2018-06-11T16:22:53.376Z,11.23
2018-06-11T16:25:22.474Z,11.77
2018-06-11T16:28:08.350Z,9.90
2018-06-11T16:30:39.526Z,11.70
2018-06-11T16:33:08.641Z,11.23
2018-06-11T16:35:37.764Z,13.23
2018-06-11T16:38:06.908Z,12.03
2018-06-11T16:40:36.042Z,11.90
2018-06-11T16:43:05.373Z,12.50
2018-06-11T16:45:34.505Z,12.43
2018-06-11T16:48:03.754Z,14.13
2018-06-11T16:50:33.322Z,11.10
2018-06-11T16:53:02.429Z,12.80
2018-06-11T16:55:31.550Z,9.77
2018-06-11T16:58:00.950Z,10.90
2018-06-11T17:00:30.074Z,12.37
2018-06-11T17:02:59.182Z,9.80
2018-06-11T17:05:28.326Z,11.13
2018-06-11T17:07:57.473Z,9.33
2018-06-11T17:10:26.621Z,12.07
2018-06-11T17:12:55.753Z,13.10
2018-06-11T17:15:24.895Z,12.80
2018-06-11T17:17:54.057Z,12.57
2018-06-11T17:20:23.258Z,13.07
2018-06-11T17:22:52.430Z,16.47
2018-06-11T17:25:21.558Z,13.47
2018-06-11T17:27:50.672Z,12.30
2018-06-11T17:30:19.784Z,10.80
2018-06-11T17:32:48.917Z,12.50
2018-06-11T17:35:18.084Z,15.07
2018-06-11T17:37:47.225Z,13.63
2018-06-11T17:40:16.362Z,12.67
2018-06-11T17:42:45.493Z,13.40
2018-06-11T17:45:14.630Z,14.30
2018-06-11T17:47:43.701Z,12.87
2018-06-11T17:50:12.813Z,11.30
2018-06-11T17:52:42.007Z,15.47
2018-06-11T17:55:12.174Z,15.37
2018-06-11T17:57:41.317Z,14.10
2018-06-11T18:00:10.442Z,12.93
2018-06-11T18:02:39.593Z,14.10
2018-06-11T18:05:08.749Z,13.80
2018-06-11T18:07:37.885Z,13.53
2018-06-11T18:10:07.034Z,11.50
2018-06-11T18:12:36.213Z,11.13
2018-06-11T18:15:05.332Z,13.10
2018-06-11T18:17:34.461Z,13.90
2018-06-11T18:20:03.582Z,14.93
2018-06-11T18:22:36.158Z,12.20
2018-06-11T18:25:06.331Z,11.43
2018-06-11T18:27:35.467Z,15.43
2018-06-11T18:30:05.838Z,15.57
2018-06-11T18:32:35.981Z,17.70
2018-06-11T18:35:19.458Z,15.13
2018-06-11T18:38:08.724Z,12.67
2018-06-11T18:40:38.941Z,11.87
2018-06-11T18:43:09.386Z,13.33
2018-06-11T18:45:38.511Z,17.00
2018-06-11T18:48:07.702Z,15.37
2018-06-11T18:50:36.891Z,13.83
2018-06-11T18:53:06.349Z,14.00
2018-06-11T18:55:35.514Z,20.30
2018-06-11T18:58:04.793Z,19.70
2018-06-11T19:00:33.955Z,19.90
2018-06-11T19:03:04.153Z,16.33
2018-06-11T19:05:33.444Z,18.43
2018-06-11T19:08:02.627Z,17.33
2018-06-11T19:10:31.781Z,22.00
2018-06-11T19:13:02.815Z,18.40
2018-06-11T19:15:32.043Z,16.10
2018-06-11T19:18:01.186Z,16.47
2018-06-11T19:20:30.306Z,14.50
2018-06-11T19:23:00.477Z,11.50
2018-06-11T19:25:29.645Z,13.20
2018-06-11T19:27:58.797Z,14.77
2018-06-11T19:30:27.985Z,18.13
2018-06-11T19:32:57.306Z,14.17
2018-06-11T19:35:26.421Z,12.43
2018-06-11T19:37:57.604Z,14.33
2018-06-11T19:40:26.809Z,10.80
2018-06-11T19:42:55.936Z,17.73
2018-06-11T19:45:25.187Z,14.17
2018-06-11T19:47:54.337Z,12.33
2018-06-11T19:50:23.678Z,13.63
2018-06-11T19:52:52.938Z,13.10
2018-06-11T19:55:22.130Z,12.80
2018-06-11T19:57:51.302Z,12.53
2018-06-11T20:00:20.453Z,11.63
2018-06-11T20:02:49.606Z,15.57
2018-06-11T20:05:18.823Z,15.47
2018-06-11T20:07:47.894Z,13.43
2018-06-11T20:10:17.008Z,14.30
2018-06-11T20:12:46.190Z,13.87
2018-06-11T20:15:15.417Z,14.77
2018-06-11T20:17:44.554Z,13.67
2018-06-11T20:20:13.681Z,14.30
2018-06-11T20:22:42.807Z,13.90
2018-06-11T20:25:12.047Z,13.63
2018-06-11T20:27:41.154Z,12.10
2018-06-11T20:30:10.270Z,14.37
2018-06-11T20:32:39.406Z,13.70
2018-06-11T20:35:08.570Z,15.27
2018-06-11T20:37:37.774Z,12.73
2018-06-11T20:40:06.947Z,15.20
2018-06-11T20:42:36.137Z,14.60
2018-06-11T20:45:05.251Z,17.43
2018-06-11T20:47:34.385Z,13.47
2018-06-11T20:50:03.554Z,11.60
2018-06-11T20:52:32.779Z,14.87
2018-06-11T20:55:01.893Z,14.90
2018-06-11T20:57:31.027Z,14.93
2018-06-11T21:00:00.181Z,14.90
2018-06-11T21:02:29.355Z,14.03
2018-06-11T21:04:58.456Z,13.17
2018-06-11T21:07:27.604Z,15.37
2018-06-11T21:09:56.731Z,15.63
2018-06-11T21:12:25.826Z,15.57
2018-06-11T21:14:54.989Z,12.70
2018-06-11T21:17:24.132Z,13.97
2018-06-11T21:19:53.244Z,12.70
2018-06-11T21:22:22.416Z,14.03
2018-06-11T21:24:51.531Z,18.93
2018-06-11T21:27:20.712Z,14.00
2018-06-11T21:29:49.853Z,14.03
2018-06-11T21:32:19.001Z,12.67
2018-06-11T21:34:48.120Z,13.30
2018-06-11T21:37:17.253Z,13.57
2018-06-11T21:39:46.366Z,14.80
2018-06-11T21:42:15.650Z,14.40
2018-06-11T21:44:45.382Z,15.63
2018-06-11T21:47:14.533Z,12.83
2018-06-11T21:49:43.653Z,11.20
2018-06-11T21:52:12.781Z,12.47
2018-06-11T21:54:41.947Z,12.03
2018-06-11T21:57:11.046Z,13.20
2018-06-11T21:59:40.177Z,18.03
2018-06-11T22:02:09.305Z,17.23
2018-06-11T22:04:38.466Z,14.07
2018-06-11T22:07:07.588Z,14.53
2018-06-11T22:09:36.761Z,19.33
2018-06-11T22:12:05.868Z,15.50
2018-06-11T22:14:34.981Z,13.77
2018-06-11T22:17:04.257Z,15.73
2018-06-11T22:19:33.386Z,17.53
2018-06-11T22:22:02.513Z,14.90
2018-06-11T22:24:31.654Z,16.93
2018-06-11T22:27:00.769Z,13.17
2018-06-11T22:29:29.869Z,17.27
2018-06-11T22:31:58.982Z,14.77
2018-06-11T22:34:28.130Z,14.80
2018-06-11T22:36:57.274Z,15.00
2018-06-11T22:39:26.397Z,14.37
2018-06-11T22:41:55.527Z,15.33
2018-06-11T22:44:24.668Z,18.00
2018-06-11T22:46:53.802Z,16.70
2018-06-11T22:49:22.918Z,18.43
2018-06-11T22:51:52.054Z,16.47
2018-06-11T22:54:21.183Z,14.37
2018-06-11T22:56:50.332Z,15.53
2018-06-11T22:59:19.482Z,15.50
2018-06-11T23:01:48.593Z,16.00
2018-06-11T23:04:17.725Z,14.63
2018-06-11T23:06:46.873Z,15.03
2018-06-11T23:09:16.034Z,14.27
2018-06-11T23:11:45.189Z,14.93
2018-06-11T23:14:14.315Z,13.53
2018-06-11T23:16:43.454Z,15.20
2018-06-11T23:19:12.580Z,13.53
2018-06-11T23:21:41.726Z,14.47
2018-06-11T23:24:10.857Z,17.07
2018-06-11T23:26:40.025Z,15.60
2018-06-11T23:29:09.541Z,15.63
2018-06-11T23:31:38.668Z,17.00
2018-06-11T23:34:07.801Z,17.60
2018-06-11T23:36:36.926Z,14.97
2018-06-11T23:39:07.407Z,14.77
2018-06-11T23:41:36.533Z,15.90
2018-06-11T23:44:05.657Z,14.50
2018-06-11T23:46:34.794Z,18.13
2018-06-11T23:49:03.914Z,16.77
2018-06-11T23:51:33.133Z,18.93
2018-06-11T23:54:02.246Z,15.93
2018-06-11T23:56:31.370Z,17.10
2018-06-11T23:59:00.571Z,16.13
